Norwegian Spirit — C6TQ6 — position and weather

sailwx.info

Track history (hours):
 
Tides and Currents Weather Stations Pressure Air Temp Water Temp Dewpoint Dewpoint Depression Visibility Wind Speed Wind Dir Waves Ship Positions

Norwegian Spirit

Operator: Norwegian Cruise Line

Last reported at 2014-Oct-24 15:33 UTC. Time now 2014-Oct-24 15:38 UTC.
Position N 37°49' E 023°36'.

Type: Ship. MMSI: 311746000.

Date/timePositionNaut miles runAvg speedWind from/ knotsBaromVisibWave heightAir tempDewpointWater temp
2014-Oct-24 15:33N 37°49' E 023°36'8 7.7
2014-Oct-24 14:32N 37°56' E 023°38'0 0.0
2014-Oct-24 13:28N 37°56' E 023°38'0 0.0
2014-Oct-24 12:31N 37°56' E 023°38'0 0.0
2014-Oct-24 11:33N 37°56' E 023°38'0 0.0
2014-Oct-24 10:33N 37°56' E 023°38'0 0.0
2014-Oct-24 09:33N 37°56' E 023°38'0 0.0
2014-Oct-24 08:33N 37°56' E 023°38'0 0.0
2014-Oct-24 05:32N 37°56' E 023°38'0 0.0
2014-Oct-24 04:31N 37°56' E 023°38'0 0.1
2014-Oct-24 03:33N 37°56' E 023°38'4 3.7
2014-Oct-24 02:33N 37°53' E 023°38'9 9.1
2014-Oct-24 01:33N 37°44' E 023°42'5417.1
2014-Oct-23 22:22N 36°51' E 023°30'3122.2
2014-Oct-23 21:00N 36°24' E 023°12'13216.5 250 / 151021.0 19.0
2014-Oct-23 13:00N 37°06' E 020°36'23817.0 330 / 151018.0 20.0
2014-Oct-22 23:00N 40°36' E 018°12'2221.8 330 / 251004.0 17.0
2014-Oct-22 22:00N 40°48' E 017°48'3015.0 330 / 261004.0 17.0
2014-Oct-22 20:00N 41°12' E 017°24'5117.0 310 / 351008.0 4.017.015.421.0
2014-Oct-22 17:00N 41°48' E 016°36'   320 / 391015.0 3.016.312.420.0
2014-Oct-20 00:00N 43°06' E 150°00'59051181.1 130 / 31027.0 21.0
2014-Oct-19 19:00N 42°06' E 016°18'44620.7
2014-Oct-18 21:30N 36°23' E 022°25'5518.6
2014-Oct-18 18:33N 36°44' E 023°28'2121.3
2014-Oct-18 17:33N 37°04' E 023°37'2820.9
2014-Oct-18 16:14N 37°31' E 023°42'6012479.8
2014-Oct-18 16:00N 27°30' E 023°42'6151416.4 050 / 71017.0 0.526.021.728.0
2014-Oct-18 15:33N 37°45' E 023°38'1111.0
2014-Oct-18 14:33N 37°56' E 023°38'0 0.0
2014-Oct-18 13:33N 37°56' E 023°38'0 0.0
2014-Oct-18 12:32N 37°56' E 023°38'0 0.0
2014-Oct-18 11:32N 37°56' E 023°38'0 0.0
2014-Oct-18 10:32N 37°56' E 023°38'0 0.0
2014-Oct-18 09:31N 37°56' E 023°38'0 0.0
2014-Oct-18 08:31N 37°56' E 023°38'0 0.0
2014-Oct-18 07:33N 37°56' E 023°38'0 0.0
2014-Oct-18 06:33N 37°56' E 023°38'0 0.0
2014-Oct-18 05:32N 37°56' E 023°38'0 0.0
2014-Oct-18 04:33N 37°56' E 023°38'7 6.8
2014-Oct-18 03:34N 37°50' E 023°40'1514.8
2014-Oct-18 02:33N 37°38' E 023°52'1616.1
2014-Oct-18 01:33N 37°31' E 024°10'711.8
2014-Oct-18 01:00N 37°30' E 024°18'1022.6 290 / 321016.0 22.0
2014-Oct-18 00:33N 37°31' E 024°30'916.5
2014-Oct-18 00:00N 37°30' E 024°42'1118.1 300 / 181016.0 22.0
2014-Oct-17 23:24N 37°32' E 024°55'1417.2
2014-Oct-17 22:34N 37°30' E 025°13'1817.8
2014-Oct-17 21:34N 37°42' E 025°30'1817.5
2014-Oct-17 20:32N 37°50' E 025°51'1717.5
2014-Oct-17 19:33N 37°54' E 026°12'1917.5
2014-Oct-17 18:28N 37°53' E 026°36'27 2.9
2014-Oct-17 09:08N 37°53' E 027°10'1717.4
2014-Oct-17 08:11N 37°57' E 026°49'3317.1
2014-Oct-17 06:13N 38°04' E 026°08'1516.9
2014-Oct-17 05:21N 38°11' E 025°51'1618.0
2014-Oct-17 04:28N 38°26' E 025°44'8120.8
2014-Oct-17 00:33N 39°48' E 025°43'2320.6
2014-Oct-16 23:25N 40°01' E 026°08'4214.3
2014-Oct-16 20:29N 40°28' E 026°50'12 0.6
2014-Oct-16 00:00N 40°30' E 027°06'916.4 260 / 101015.0 19.0
2014-Oct-15 23:28N 40°29' E 026°55'5714.5
2014-Oct-15 19:33N 39°55' E 025°55'1817.2
2014-Oct-15 18:31N 39°39' E 025°44'1917.6
2014-Oct-15 17:27N 39°22' E 025°35'1123.2
2014-Oct-15 17:00N 39°12' E 025°30'612.6 260 / 21021.0 1.021.019.521.0
2014-Oct-15 16:32N 39°07' E 025°27'2019.6
2014-Oct-15 15:31N 38°48' E 025°19'2121.7
2014-Oct-15 14:33N 38°28' E 025°12'2221.6
2014-Oct-15 13:33N 38°06' E 025°14'2121.3
2014-Oct-15 12:33N 37°45' E 025°16'1716.5
2014-Oct-15 11:32N 37°28' E 025°19'0 0.0
2014-Oct-15 10:31N 37°28' E 025°19'0 0.0
2014-Oct-15 09:31N 37°28' E 025°19'0 0.0
2014-Oct-15 08:30N 37°28' E 025°19'0 0.0
2014-Oct-15 07:30N 37°28' E 025°19'0 0.0
2014-Oct-15 06:30N 37°28' E 025°19'0 0.0
2014-Oct-15 05:29N 37°28' E 025°19'0 0.0
2014-Oct-15 04:29N 37°28' E 025°19'1 1.3
2014-Oct-15 03:33N 37°27' E 025°18'1616.2
2014-Oct-15 02:34N 37°21' E 024°59'1817.9
2014-Oct-15 01:34N 37°09' E 024°42'1818.1
2014-Oct-15 00:34N 36°59' E 024°24'1717.4
2014-Oct-14 23:34N 36°50' E 024°05'1220.8
2014-Oct-14 23:00N 36°42' E 023°54'612.9 180 / 91016.0 21.0
2014-Oct-14 22:33N 36°40' E 023°47'1817.6
2014-Oct-14 21:33N 36°30' E 023°29'4919.2
2014-Oct-14 19:00N 36°18' E 022°30'   300 / 151021.0 2.023.021.625.0
Track history (hours):
 
Tides and Currents Weather Stations Pressure Air Temp Water Temp Dewpoint Dewpoint Depression Visibility Wind Speed Wind Dir Waves Ship Positions

Norwegian Spirit

Operator: Norwegian Cruise Line

Last reported at 2014-Oct-24 15:33 UTC. Time now 2014-Oct-24 15:38 UTC.
Position N 37°49' E 023°36'.

Type: Ship. MMSI: 311746000.

Date/timePositionNaut miles runAvg speedWind from/ knotsBaromVisibWave heightAir tempDewpointWater temp
2014-Oct-24 15:33N 37°49' E 023°36'8 7.7
2014-Oct-24 14:32N 37°56' E 023°38'0 0.0
2014-Oct-24 13:28N 37°56' E 023°38'0 0.0
2014-Oct-24 12:31N 37°56' E 023°38'0 0.0
2014-Oct-24 11:33N 37°56' E 023°38'0 0.0
2014-Oct-24 10:33N 37°56' E 023°38'0 0.0
2014-Oct-24 09:33N 37°56' E 023°38'0 0.0
2014-Oct-24 08:33N 37°56' E 023°38'0 0.0
2014-Oct-24 05:32N 37°56' E 023°38'0 0.0
2014-Oct-24 04:31N 37°56' E 023°38'0 0.1
2014-Oct-24 03:33N 37°56' E 023°38'4 3.7
2014-Oct-24 02:33N 37°53' E 023°38'9 9.1
2014-Oct-24 01:33N 37°44' E 023°42'5417.1
2014-Oct-23 22:22N 36°51' E 023°30'3122.2
2014-Oct-23 21:00N 36°24' E 023°12'13216.5 250 / 151021.0 19.0
2014-Oct-23 13:00N 37°06' E 020°36'23817.0 330 / 151018.0 20.0
2014-Oct-22 23:00N 40°36' E 018°12'2221.8 330 / 251004.0 17.0
2014-Oct-22 22:00N 40°48' E 017°48'3015.0 330 / 261004.0 17.0
2014-Oct-22 20:00N 41°12' E 017°24'5117.0 310 / 351008.0 4.017.015.421.0
2014-Oct-22 17:00N 41°48' E 016°36'   320 / 391015.0 3.016.312.420.0
2014-Oct-20 00:00N 43°06' E 150°00'59051181.1 130 / 31027.0 21.0
2014-Oct-19 19:00N 42°06' E 016°18'44620.7
2014-Oct-18 21:30N 36°23' E 022°25'5518.6
2014-Oct-18 18:33N 36°44' E 023°28'2121.3
2014-Oct-18 17:33N 37°04' E 023°37'2820.9
2014-Oct-18 16:14N 37°31' E 023°42'6012479.8
2014-Oct-18 16:00N 27°30' E 023°42'6151416.4 050 / 71017.0 0.526.021.728.0
2014-Oct-18 15:33N 37°45' E 023°38'1111.0
2014-Oct-18 14:33N 37°56' E 023°38'0 0.0
2014-Oct-18 13:33N 37°56' E 023°38'0 0.0
2014-Oct-18 12:32N 37°56' E 023°38'0 0.0
2014-Oct-18 11:32N 37°56' E 023°38'0 0.0
2014-Oct-18 10:32N 37°56' E 023°38'0 0.0
2014-Oct-18 09:31N 37°56' E 023°38'0 0.0
2014-Oct-18 08:31N 37°56' E 023°38'0 0.0
2014-Oct-18 07:33N 37°56' E 023°38'0 0.0
2014-Oct-18 06:33N 37°56' E 023°38'0 0.0
2014-Oct-18 05:32N 37°56' E 023°38'0 0.0
2014-Oct-18 04:33N 37°56' E 023°38'7 6.8
2014-Oct-18 03:34N 37°50' E 023°40'1514.8
2014-Oct-18 02:33N 37°38' E 023°52'1616.1
2014-Oct-18 01:33N 37°31' E 024°10'711.8
2014-Oct-18 01:00N 37°30' E 024°18'1022.6 290 / 321016.0 22.0
2014-Oct-18 00:33N 37°31' E 024°30'916.5
2014-Oct-18 00:00N 37°30' E 024°42'1118.1 300 / 181016.0 22.0
2014-Oct-17 23:24N 37°32' E 024°55'1417.2
2014-Oct-17 22:34N 37°30' E 025°13'1817.8
2014-Oct-17 21:34N 37°42' E 025°30'1817.5
2014-Oct-17 20:32N 37°50' E 025°51'1717.5
2014-Oct-17 19:33N 37°54' E 026°12'1917.5
2014-Oct-17 18:28N 37°53' E 026°36'27 2.9
2014-Oct-17 09:08N 37°53' E 027°10'1717.4
2014-Oct-17 08:11N 37°57' E 026°49'3317.1
2014-Oct-17 06:13N 38°04' E 026°08'1516.9
2014-Oct-17 05:21N 38°11' E 025°51'1618.0
2014-Oct-17 04:28N 38°26' E 025°44'8120.8
2014-Oct-17 00:33N 39°48' E 025°43'2320.6
2014-Oct-16 23:25N 40°01' E 026°08'4214.3
2014-Oct-16 20:29N 40°28' E 026°50'12 0.6
2014-Oct-16 00:00N 40°30' E 027°06'916.4 260 / 101015.0 19.0
2014-Oct-15 23:28N 40°29' E 026°55'5714.5
2014-Oct-15 19:33N 39°55' E 025°55'1817.2
2014-Oct-15 18:31N 39°39' E 025°44'1917.6
2014-Oct-15 17:27N 39°22' E 025°35'1123.2
2014-Oct-15 17:00N 39°12' E 025°30'612.6 260 / 21021.0 1.021.019.521.0
2014-Oct-15 16:32N 39°07' E 025°27'2019.6
2014-Oct-15 15:31N 38°48' E 025°19'2121.7
2014-Oct-15 14:33N 38°28' E 025°12'2221.6
2014-Oct-15 13:33N 38°06' E 025°14'2121.3
2014-Oct-15 12:33N 37°45' E 025°16'1716.5
2014-Oct-15 11:32N 37°28' E 025°19'0 0.0
2014-Oct-15 10:31N 37°28' E 025°19'0 0.0
2014-Oct-15 09:31N 37°28' E 025°19'0 0.0
2014-Oct-15 08:30N 37°28' E 025°19'0 0.0
2014-Oct-15 07:30N 37°28' E 025°19'0 0.0
2014-Oct-15 06:30N 37°28' E 025°19'0 0.0
2014-Oct-15 05:29N 37°28' E 025°19'0 0.0
2014-Oct-15 04:29N 37°28' E 025°19'1 1.3
2014-Oct-15 03:33N 37°27' E 025°18'1616.2
2014-Oct-15 02:34N 37°21' E 024°59'1817.9
2014-Oct-15 01:34N 37°09' E 024°42'1818.1
2014-Oct-15 00:34N 36°59' E 024°24'1717.4
2014-Oct-14 23:34N 36°50' E 024°05'1220.8
2014-Oct-14 23:00N 36°42' E 023°54'612.9 180 / 91016.0 21.0
2014-Oct-14 22:33N 36°40' E 023°47'1817.6
2014-Oct-14 21:33N 36°30' E 023°29'4919.2
2014-Oct-14 19:00N 36°18' E 022°30'   300 / 151021.0 2.023.021.625.0

Dump ship's entire track history